Weather at Mateo Remas Airport

Public forecast

Using degrees Celsius for public forecast. Weather courtesy of forecast.io.

Closest aviation weather report (METAR) to Mateo Remas Airport

Closest report is Frank Pais International Airport, 51.5 nm (95.4 km) NE.

2023/01/26 21:50 (retrieved 36 minutes ago)

MUHG 262150Z 02012KT 9000 NSC 29/16 Q1016

Closest aviation forecast (TAF) to Mateo Remas Airport

Closest forecast is Frank Pais International Airport, 51.5 nm (95.4 km) NE.

2023/01/26 18:03 (retrieved 4 hours ago)

TAF MUHG 261700Z 2618/2718 07012KT 9000 SCT020 BECMG 2703/2705 VRB03KT